sensor_id;sensor_type;location;lat;lon;timestamp;P1;durP1;ratioP1;P2;durP2;ratioP2
71655;SDS011;59497;48.798;8.816;2022-10-19T00:01:31;46.70;;;6.83;;
71655;SDS011;59497;48.798;8.816;2022-10-19T00:03:56;51.73;;;5.90;;
71655;SDS011;59497;48.798;8.816;2022-10-19T00:06:26;17.85;;;4.63;;
71655;SDS011;59497;48.798;8.816;2022-10-19T00:08:53;39.72;;;5.18;;
71655;SDS011;59497;48.798;8.816;2022-10-19T00:11:18;42.80;;;4.87;;
71655;SDS011;59497;48.798;8.816;2022-10-19T00:13:43;16.70;;;4.30;;
71655;SDS011;59497;48.798;8.816;2022-10-19T00:16:10;30.80;;;5.47;;
71655;SDS011;59497;48.798;8.816;2022-10-19T00:18:35;25.75;;;4.55;;
71655;SDS011;59497;48.798;8.816;2022-10-19T00:21:01;12.47;;;4.27;;
71655;SDS011;59497;48.798;8.816;2022-10-19T00:23:26;16.73;;;3.83;;
71655;SDS011;59497;48.798;8.816;2022-10-19T00:25:55;17.73;;;4.07;;
71655;SDS011;59497;48.798;8.816;2022-10-19T00:28:20;36.92;;;4.97;;
71655;SDS011;59497;48.798;8.816;2022-10-19T00:30:45;16.60;;;4.20;;
71655;SDS011;59497;48.798;8.816;2022-10-19T00:33:10;7.67;;;4.17;;
71655;SDS011;59497;48.798;8.816;2022-10-19T00:35:38;34.47;;;4.77;;
71655;SDS011;59497;48.798;8.816;2022-10-19T00:38:04;28.60;;;3.97;;
71655;SDS011;59497;48.798;8.816;2022-10-19T00:40:29;21.67;;;3.95;;
71655;SDS011;59497;48.798;8.816;2022-10-19T00:43:00;36.90;;;4.75;;
71655;SDS011;59497;48.798;8.816;2022-10-19T00:45:25;23.63;;;5.07;;
71655;SDS011;59497;48.798;8.816;2022-10-19T00:47:50;22.63;;;4.97;;
71655;SDS011;59497;48.798;8.816;2022-10-19T00:50:16;28.90;;;5.20;;
71655;SDS011;59497;48.798;8.816;2022-10-19T00:52:41;22.90;;;4.33;;
71655;SDS011;59497;48.798;8.816;2022-10-19T00:55:06;16.17;;;4.83;;
71655;SDS011;59497;48.798;8.816;2022-10-19T00:57:32;17.55;;;4.53;;
71655;SDS011;59497;48.798;8.816;2022-10-19T00:59:57;31.57;;;4.70;;
71655;SDS011;59497;48.798;8.816;2022-10-19T01:02:23;34.83;;;5.13;;
71655;SDS011;59497;48.798;8.816;2022-10-19T01:04:49;32.33;;;5.43;;
71655;SDS011;59497;48.798;8.816;2022-10-19T01:07:15;22.77;;;4.40;;
71655;SDS011;59497;48.798;8.816;2022-10-19T01:09:41;35.20;;;5.00;;
71655;SDS011;59497;48.798;8.816;2022-10-19T01:14:42;49.92;;;5.35;;
71655;SDS011;59497;48.798;8.816;2022-10-19T01:22:16;52.03;;;5.22;;
71655;SDS011;59497;48.798;8.816;2022-10-19T01:25:04;22.65;;;4.95;;
71655;SDS011;59497;48.798;8.816;2022-10-19T01:27:36;24.40;;;4.60;;
71655;SDS011;59497;48.798;8.816;2022-10-19T01:30:05;33.40;;;5.00;;
71655;SDS011;59497;48.798;8.816;2022-10-19T01:32:37;34.13;;;4.95;;
71655;SDS011;59497;48.798;8.816;2022-10-19T01:35:06;32.47;;;5.35;;
71655;SDS011;59497;48.798;8.816;2022-10-19T01:37:37;11.90;;;4.32;;
71655;SDS011;59497;48.798;8.816;2022-10-19T01:40:09;40.55;;;5.28;;
71655;SDS011;59497;48.798;8.816;2022-10-19T01:45:04;20.15;;;4.50;;
71655;SDS011;59497;48.798;8.816;2022-10-19T01:47:41;19.38;;;4.50;;
71655;SDS011;59497;48.798;8.816;2022-10-19T01:50:12;18.52;;;4.50;;
71655;SDS011;59497;48.798;8.816;2022-10-19T01:52:39;10.77;;;4.60;;
71655;SDS011;59497;48.798;8.816;2022-10-19T01:55:06;32.85;;;4.97;;
71655;SDS011;59497;48.798;8.816;2022-10-19T01:57:32;27.13;;;5.10;;
71655;SDS011;59497;48.798;8.816;2022-10-19T01:59:58;10.57;;;4.75;;
71655;SDS011;59497;48.798;8.816;2022-10-19T02:02:31;10.63;;;4.60;;
71655;SDS011;59497;48.798;8.816;2022-10-19T02:04:57;7.75;;;4.10;;
71655;SDS011;59497;48.798;8.816;2022-10-19T02:07:22;12.07;;;4.77;;
71655;SDS011;59497;48.798;8.816;2022-10-19T02:09:48;26.45;;;4.55;;
71655;SDS011;59497;48.798;8.816;2022-10-19T02:12:14;10.63;;;4.40;;
71655;SDS011;59497;48.798;8.816;2022-10-19T02:14:41;9.75;;;4.50;;
71655;SDS011;59497;48.798;8.816;2022-10-19T02:17:08;65.57;;;6.63;;
71655;SDS011;59497;48.798;8.816;2022-10-19T02:19:34;46.20;;;6.53;;
71655;SDS011;59497;48.798;8.816;2022-10-19T02:21:59;48.73;;;6.20;;
71655;SDS011;59497;48.798;8.816;2022-10-19T02:24:24;79.57;;;6.90;;
71655;SDS011;59497;48.798;8.816;2022-10-19T02:26:49;70.57;;;7.03;;
71655;SDS011;59497;48.798;8.816;2022-10-19T02:29:15;98.05;;;6.82;;
71655;SDS011;59497;48.798;8.816;2022-10-19T02:31:40;106.00;;;9.60;;
71655;SDS011;59497;48.798;8.816;2022-10-19T02:34:06;69.30;;;6.80;;
71655;SDS011;59497;48.798;8.816;2022-10-19T02:36:31;83.57;;;7.80;;
71655;SDS011;59497;48.798;8.816;2022-10-19T02:38:56;65.53;;;7.23;;
71655;SDS011;59497;48.798;8.816;2022-10-19T02:41:22;59.90;;;7.80;;
71655;SDS011;59497;48.798;8.816;2022-10-19T02:43:49;57.35;;;6.38;;
71655;SDS011;59497;48.798;8.816;2022-10-19T02:46:27;57.88;;;7.18;;
71655;SDS011;59497;48.798;8.816;2022-10-19T02:48:54;53.05;;;6.85;;
71655;SDS011;59497;48.798;8.816;2022-10-19T02:51:36;65.70;;;7.07;;
71655;SDS011;59497;48.798;8.816;2022-10-19T02:54:03;30.13;;;6.43;;
71655;SDS011;59497;48.798;8.816;2022-10-19T02:56:28;14.65;;;5.95;;
71655;SDS011;59497;48.798;8.816;2022-10-19T02:58:53;38.20;;;6.77;;
71655;SDS011;59497;48.798;8.816;2022-10-19T03:01:19;58.53;;;7.35;;
71655;SDS011;59497;48.798;8.816;2022-10-19T03:03:44;58.00;;;6.47;;
71655;SDS011;59497;48.798;8.816;2022-10-19T03:06:09;39.20;;;6.57;;
71655;SDS011;59497;48.798;8.816;2022-10-19T03:08:34;48.00;;;6.37;;
71655;SDS011;59497;48.798;8.816;2022-10-19T03:10:59;40.67;;;7.23;;
71655;SDS011;59497;48.798;8.816;2022-10-19T03:13:25;70.53;;;7.83;;
71655;SDS011;59497;48.798;8.816;2022-10-19T03:15:50;26.87;;;7.17;;
71655;SDS011;59497;48.798;8.816;2022-10-19T03:18:15;30.80;;;6.80;;
71655;SDS011;59497;48.798;8.816;2022-10-19T03:20:40;18.15;;;6.53;;
71655;SDS011;59497;48.798;8.816;2022-10-19T03:23:06;15.67;;;6.33;;
71655;SDS011;59497;48.798;8.816;2022-10-19T03:25:31;28.60;;;7.38;;
71655;SDS011;59497;48.798;8.816;2022-10-19T03:27:56;39.03;;;6.60;;
71655;SDS011;59497;48.798;8.816;2022-10-19T03:30:21;27.80;;;6.17;;
71655;SDS011;59497;48.798;8.816;2022-10-19T03:32:46;15.60;;;6.60;;
71655;SDS011;59497;48.798;8.816;2022-10-19T03:35:11;16.42;;;5.63;;
71655;SDS011;59497;48.798;8.816;2022-10-19T03:37:36;33.72;;;6.13;;
71655;SDS011;59497;48.798;8.816;2022-10-19T03:40:02;39.70;;;7.13;;
71655;SDS011;59497;48.798;8.816;2022-10-19T03:42:27;36.87;;;7.03;;
71655;SDS011;59497;48.798;8.816;2022-10-19T03:44:52;47.37;;;6.93;;
71655;SDS011;59497;48.798;8.816;2022-10-19T03:47:17;48.30;;;6.65;;
71655;SDS011;59497;48.798;8.816;2022-10-19T03:49:42;19.70;;;6.60;;
71655;SDS011;59497;48.798;8.816;2022-10-19T03:52:08;37.93;;;6.93;;
71655;SDS011;59497;48.798;8.816;2022-10-19T03:54:34;35.00;;;7.40;;
71655;SDS011;59497;48.798;8.816;2022-10-19T03:56:59;27.13;;;6.90;;
71655;SDS011;59497;48.798;8.816;2022-10-19T03:59:24;47.03;;;6.93;;
71655;SDS011;59497;48.798;8.816;2022-10-19T04:01:49;20.93;;;7.30;;
71655;SDS011;59497;48.798;8.816;2022-10-19T04:04:15;38.23;;;6.67;;
71655;SDS011;59497;48.798;8.816;2022-10-19T04:06:41;56.88;;;7.80;;
71655;SDS011;59497;48.798;8.816;2022-10-19T04:09:07;38.20;;;6.43;;
71655;SDS011;59497;48.798;8.816;2022-10-19T04:11:32;71.43;;;8.23;;
71655;SDS011;59497;48.798;8.816;2022-10-19T04:13:58;35.90;;;8.33;;
71655;SDS011;59497;48.798;8.816;2022-10-19T04:16:24;23.17;;;7.37;;
71655;SDS011;59497;48.798;8.816;2022-10-19T04:18:49;28.20;;;8.38;;
71655;SDS011;59497;48.798;8.816;2022-10-19T04:21:25;22.93;;;7.57;;
71655;SDS011;59497;48.798;8.816;2022-10-19T04:23:51;26.77;;;8.35;;
71655;SDS011;59497;48.798;8.816;2022-10-19T04:26:17;25.20;;;7.37;;
71655;SDS011;59497;48.798;8.816;2022-10-19T04:28:42;21.38;;;6.90;;
71655;SDS011;59497;48.798;8.816;2022-10-19T04:31:07;27.03;;;7.90;;
71655;SDS011;59497;48.798;8.816;2022-10-19T04:33:33;27.77;;;7.10;;
71655;SDS011;59497;48.798;8.816;2022-10-19T04:36:02;27.63;;;7.93;;
71655;SDS011;59497;48.798;8.816;2022-10-19T04:38:28;25.10;;;8.18;;
71655;SDS011;59497;48.798;8.816;2022-10-19T04:40:53;26.33;;;7.80;;
71655;SDS011;59497;48.798;8.816;2022-10-19T04:43:18;27.07;;;9.50;;
71655;SDS011;59497;48.798;8.816;2022-10-19T04:45:44;20.47;;;7.40;;
71655;SDS011;59497;48.798;8.816;2022-10-19T04:48:09;25.57;;;8.60;;
71655;SDS011;59497;48.798;8.816;2022-10-19T04:50:34;25.73;;;8.53;;
71655;SDS011;59497;48.798;8.816;2022-10-19T04:52:59;24.63;;;8.80;;
71655;SDS011;59497;48.798;8.816;2022-10-19T04:55:24;21.50;;;9.13;;
71655;SDS011;59497;48.798;8.816;2022-10-19T04:57:49;24.80;;;8.97;;
71655;SDS011;59497;48.798;8.816;2022-10-19T05:00:15;20.60;;;8.13;;
71655;SDS011;59497;48.798;8.816;2022-10-19T05:02:43;23.93;;;8.73;;
71655;SDS011;59497;48.798;8.816;2022-10-19T05:05:08;24.88;;;7.95;;
71655;SDS011;59497;48.798;8.816;2022-10-19T05:07:33;25.43;;;8.73;;
71655;SDS011;59497;48.798;8.816;2022-10-19T05:09:59;22.30;;;7.85;;
71655;SDS011;59497;48.798;8.816;2022-10-19T05:12:24;25.77;;;8.20;;
71655;SDS011;59497;48.798;8.816;2022-10-19T05:14:49;24.20;;;8.90;;
71655;SDS011;59497;48.798;8.816;2022-10-19T05:17:14;29.70;;;8.70;;
71655;SDS011;59497;48.798;8.816;2022-10-19T05:19:39;27.43;;;9.10;;
71655;SDS011;59497;48.798;8.816;2022-10-19T05:22:04;44.27;;;7.83;;
71655;SDS011;59497;48.798;8.816;2022-10-19T05:24:30;28.83;;;8.27;;
71655;SDS011;59497;48.798;8.816;2022-10-19T05:26:56;22.85;;;8.15;;
71655;SDS011;59497;48.798;8.816;2022-10-19T05:29:21;23.43;;;8.60;;
71655;SDS011;59497;48.798;8.816;2022-10-19T05:31:47;25.45;;;8.57;;
71655;SDS011;59497;48.798;8.816;2022-10-19T05:34:12;29.20;;;8.57;;
71655;SDS011;59497;48.798;8.816;2022-10-19T05:36:37;30.40;;;8.30;;
71655;SDS011;59497;48.798;8.816;2022-10-19T05:39:04;20.77;;;7.93;;
71655;SDS011;59497;48.798;8.816;2022-10-19T05:41:30;25.98;;;7.82;;
71655;SDS011;59497;48.798;8.816;2022-10-19T05:43:56;28.80;;;9.13;;
71655;SDS011;59497;48.798;8.816;2022-10-19T05:46:22;27.85;;;9.77;;
71655;SDS011;59497;48.798;8.816;2022-10-19T05:48:47;30.00;;;9.17;;
71655;SDS011;59497;48.798;8.816;2022-10-19T05:51:13;31.53;;;9.00;;
71655;SDS011;59497;48.798;8.816;2022-10-19T05:53:39;28.48;;;10.18;;
71655;SDS011;59497;48.798;8.816;2022-10-19T05:56:05;31.37;;;10.33;;
71655;SDS011;59497;48.798;8.816;2022-10-19T05:58:30;27.83;;;8.90;;
71655;SDS011;59497;48.798;8.816;2022-10-19T06:00:56;31.23;;;9.53;;
71655;SDS011;59497;48.798;8.816;2022-10-19T06:03:22;30.17;;;9.82;;
71655;SDS011;59497;48.798;8.816;2022-10-19T06:05:47;28.47;;;9.23;;
71655;SDS011;59497;48.798;8.816;2022-10-19T06:08:13;25.27;;;9.02;;
71655;SDS011;59497;48.798;8.816;2022-10-19T06:10:39;26.73;;;8.93;;
71655;SDS011;59497;48.798;8.816;2022-10-19T06:13:04;26.40;;;8.40;;
71655;SDS011;59497;48.798;8.816;2022-10-19T06:15:31;22.57;;;8.20;;
71655;SDS011;59497;48.798;8.816;2022-10-19T06:17:56;25.75;;;8.88;;
71655;SDS011;59497;48.798;8.816;2022-10-19T06:20:22;22.58;;;8.30;;
71655;SDS011;59497;48.798;8.816;2022-10-19T06:22:47;29.95;;;8.95;;
71655;SDS011;59497;48.798;8.816;2022-10-19T06:25:12;24.13;;;8.40;;
71655;SDS011;59497;48.798;8.816;2022-10-19T06:27:37;24.83;;;8.90;;
71655;SDS011;59497;48.798;8.816;2022-10-19T06:30:02;25.13;;;8.07;;
71655;SDS011;59497;48.798;8.816;2022-10-19T06:32:28;25.98;;;8.43;;
71655;SDS011;59497;48.798;8.816;2022-10-19T06:34:53;23.17;;;8.03;;
71655;SDS011;59497;48.798;8.816;2022-10-19T06:37:18;29.90;;;9.18;;
71655;SDS011;59497;48.798;8.816;2022-10-19T06:39:43;24.23;;;7.90;;
71655;SDS011;59497;48.798;8.816;2022-10-19T06:42:08;29.00;;;9.75;;
71655;SDS011;59497;48.798;8.816;2022-10-19T06:44:33;32.87;;;9.30;;
71655;SDS011;59497;48.798;8.816;2022-10-19T06:46:59;28.20;;;9.23;;
71655;SDS011;59497;48.798;8.816;2022-10-19T06:49:24;25.20;;;8.47;;
71655;SDS011;59497;48.798;8.816;2022-10-19T06:51:49;24.87;;;9.40;;
71655;SDS011;59497;48.798;8.816;2022-10-19T06:54:14;24.23;;;8.47;;
71655;SDS011;59497;48.798;8.816;2022-10-19T06:56:39;23.25;;;8.77;;
71655;SDS011;59497;48.798;8.816;2022-10-19T06:59:04;21.97;;;8.47;;
71655;SDS011;59497;48.798;8.816;2022-10-19T07:01:30;21.42;;;8.20;;
71655;SDS011;59497;48.798;8.816;2022-10-19T07:03:55;21.67;;;8.30;;
71655;SDS011;59497;48.798;8.816;2022-10-19T07:06:20;22.70;;;8.60;;
71655;SDS011;59497;48.798;8.816;2022-10-19T07:08:45;21.33;;;8.85;;
71655;SDS011;59497;48.798;8.816;2022-10-19T07:11:14;20.03;;;8.83;;
71655;SDS011;59497;48.798;8.816;2022-10-19T07:13:40;22.63;;;8.90;;
71655;SDS011;59497;48.798;8.816;2022-10-19T07:16:06;21.37;;;8.17;;
71655;SDS011;59497;48.798;8.816;2022-10-19T07:18:32;25.15;;;9.18;;
71655;SDS011;59497;48.798;8.816;2022-10-19T07:20:59;19.52;;;8.45;;
71655;SDS011;59497;48.798;8.816;2022-10-19T07:23:24;24.92;;;9.68;;
71655;SDS011;59497;48.798;8.816;2022-10-19T07:25:50;29.20;;;9.90;;
71655;SDS011;59497;48.798;8.816;2022-10-19T07:28:17;28.40;;;10.18;;
71655;SDS011;59497;48.798;8.816;2022-10-19T07:30:42;26.43;;;10.00;;
71655;SDS011;59497;48.798;8.816;2022-10-19T07:33:07;32.93;;;10.47;;
71655;SDS011;59497;48.798;8.816;2022-10-19T07:35:32;29.53;;;10.90;;
71655;SDS011;59497;48.798;8.816;2022-10-19T07:37:57;24.20;;;10.00;;
71655;SDS011;59497;48.798;8.816;2022-10-19T07:40:23;24.37;;;9.70;;
71655;SDS011;59497;48.798;8.816;2022-10-19T07:42:48;24.60;;;9.93;;
71655;SDS011;59497;48.798;8.816;2022-10-19T07:45:13;27.77;;;11.03;;
71655;SDS011;59497;48.798;8.816;2022-10-19T07:47:38;24.27;;;10.63;;
71655;SDS011;59497;48.798;8.816;2022-10-19T07:50:03;24.47;;;10.70;;
71655;SDS011;59497;48.798;8.816;2022-10-19T07:52:29;25.53;;;10.83;;
71655;SDS011;59497;48.798;8.816;2022-10-19T07:54:54;26.90;;;10.77;;
71655;SDS011;59497;48.798;8.816;2022-10-19T07:57:20;24.75;;;10.73;;
71655;SDS011;59497;48.798;8.816;2022-10-19T07:59:46;25.85;;;10.18;;
71655;SDS011;59497;48.798;8.816;2022-10-19T08:02:13;26.30;;;10.87;;
71655;SDS011;59497;48.798;8.816;2022-10-19T08:04:40;27.23;;;10.93;;
71655;SDS011;59497;48.798;8.816;2022-10-19T08:07:05;23.90;;;10.07;;
71655;SDS011;59497;48.798;8.816;2022-10-19T08:09:30;25.30;;;9.90;;
71655;SDS011;59497;48.798;8.816;2022-10-19T08:11:55;28.23;;;10.73;;
71655;SDS011;59497;48.798;8.816;2022-10-19T08:14:21;27.70;;;10.50;;
71655;SDS011;59497;48.798;8.816;2022-10-19T08:16:46;27.10;;;10.50;;
71655;SDS011;59497;48.798;8.816;2022-10-19T08:19:12;30.53;;;10.97;;
71655;SDS011;59497;48.798;8.816;2022-10-19T08:21:38;30.97;;;11.47;;
71655;SDS011;59497;48.798;8.816;2022-10-19T08:24:04;31.90;;;11.18;;
71655;SDS011;59497;48.798;8.816;2022-10-19T08:26:30;36.38;;;12.45;;
71655;SDS011;59497;48.798;8.816;2022-10-19T08:29:03;35.23;;;12.10;;
71655;SDS011;59497;48.798;8.816;2022-10-19T08:31:28;35.65;;;10.52;;
71655;SDS011;59497;48.798;8.816;2022-10-19T08:33:53;35.00;;;11.10;;
71655;SDS011;59497;48.798;8.816;2022-10-19T08:36:18;36.50;;;11.87;;
71655;SDS011;59497;48.798;8.816;2022-10-19T08:38:44;39.43;;;11.37;;
71655;SDS011;59497;48.798;8.816;2022-10-19T08:46:21;31.10;;;12.32;;
71655;SDS011;59497;48.798;8.816;2022-10-19T08:48:48;30.08;;;12.55;;
71655;SDS011;59497;48.798;8.816;2022-10-19T08:51:14;30.43;;;11.30;;
71655;SDS011;59497;48.798;8.816;2022-10-19T08:56:10;30.42;;;12.82;;
71655;SDS011;59497;48.798;8.816;2022-10-19T09:03:55;25.50;;;11.57;;
71655;SDS011;59497;48.798;8.816;2022-10-19T09:08:51;21.40;;;10.52;;
71655;SDS011;59497;48.798;8.816;2022-10-19T09:11:18;23.50;;;10.73;;
71655;SDS011;59497;48.798;8.816;2022-10-19T09:13:46;22.88;;;11.00;;
71655;SDS011;59497;48.798;8.816;2022-10-19T09:16:14;21.03;;;11.23;;
71655;SDS011;59497;48.798;8.816;2022-10-19T09:18:40;19.83;;;10.55;;
71655;SDS011;59497;48.798;8.816;2022-10-19T09:21:09;20.73;;;10.73;;
71655;SDS011;59497;48.798;8.816;2022-10-19T09:23:37;19.13;;;10.02;;
71655;SDS011;59497;48.798;8.816;2022-10-19T09:26:04;19.48;;;9.93;;
71655;SDS011;59497;48.798;8.816;2022-10-19T09:31:00;17.63;;;9.05;;
71655;SDS011;59497;48.798;8.816;2022-10-19T09:33:27;16.35;;;8.88;;
71655;SDS011;59497;48.798;8.816;2022-10-19T09:35:54;15.97;;;8.23;;
71655;SDS011;59497;48.798;8.816;2022-10-19T09:38:20;16.98;;;8.57;;
71655;SDS011;59497;48.798;8.816;2022-10-19T09:40:47;16.77;;;8.98;;
71655;SDS011;59497;48.798;8.816;2022-10-19T09:43:13;15.73;;;8.75;;
71655;SDS011;59497;48.798;8.816;2022-10-19T09:45:49;17.58;;;9.20;;
71655;SDS011;59497;48.798;8.816;2022-10-19T09:48:22;17.50;;;8.73;;
71655;SDS011;59497;48.798;8.816;2022-10-19T09:50:50;17.35;;;8.90;;
71655;SDS011;59497;48.798;8.816;2022-10-19T09:53:18;19.95;;;8.73;;
71655;SDS011;59497;48.798;8.816;2022-10-19T09:55:46;17.33;;;8.55;;
71655;SDS011;59497;48.798;8.816;2022-10-19T10:00:44;14.47;;;7.90;;
71655;SDS011;59497;48.798;8.816;2022-10-19T10:03:43;12.95;;;7.32;;
71655;SDS011;59497;48.798;8.816;2022-10-19T10:08:30;12.67;;;7.27;;
71655;SDS011;59497;48.798;8.816;2022-10-19T10:10:58;12.45;;;7.43;;
71655;SDS011;59497;48.798;8.816;2022-10-19T10:13:28;11.77;;;6.90;;
71655;SDS011;59497;48.798;8.816;2022-10-19T10:15:55;12.67;;;7.60;;
71655;SDS011;59497;48.798;8.816;2022-10-19T10:18:20;14.38;;;7.40;;
71655;SDS011;59497;48.798;8.816;2022-10-19T10:23:45;13.63;;;7.57;;
71655;SDS011;59497;48.798;8.816;2022-10-19T10:26:22;15.10;;;8.02;;
71655;SDS011;59497;48.798;8.816;2022-10-19T10:28:49;14.85;;;8.60;;
71655;SDS011;59497;48.798;8.816;2022-10-19T10:31:17;15.03;;;8.53;;
71655;SDS011;59497;48.798;8.816;2022-10-19T10:33:43;12.80;;;7.38;;
71655;SDS011;59497;48.798;8.816;2022-10-19T10:36:15;12.98;;;7.82;;
71655;SDS011;59497;48.798;8.816;2022-10-19T10:38:46;12.07;;;6.85;;
71655;SDS011;59497;48.798;8.816;2022-10-19T10:41:13;12.05;;;7.15;;
71655;SDS011;59497;48.798;8.816;2022-10-19T10:43:48;10.83;;;7.07;;
71655;SDS011;59497;48.798;8.816;2022-10-19T10:46:15;11.70;;;6.88;;
71655;SDS011;59497;48.798;8.816;2022-10-19T10:48:44;12.35;;;7.38;;
71655;SDS011;59497;48.798;8.816;2022-10-19T10:51:19;11.65;;;6.85;;
71655;SDS011;59497;48.798;8.816;2022-10-19T10:53:45;12.02;;;7.20;;
71655;SDS011;59497;48.798;8.816;2022-10-19T10:56:21;10.67;;;6.77;;
71655;SDS011;59497;48.798;8.816;2022-10-19T10:59:01;9.32;;;5.90;;
71655;SDS011;59497;48.798;8.816;2022-10-19T11:01:32;9.85;;;6.30;;
71655;SDS011;59497;48.798;8.816;2022-10-19T11:04:04;9.43;;;5.82;;
71655;SDS011;59497;48.798;8.816;2022-10-19T11:06:29;8.45;;;5.60;;
71655;SDS011;59497;48.798;8.816;2022-10-19T11:09:06;7.47;;;5.30;;
71655;SDS011;59497;48.798;8.816;2022-10-19T11:14:21;9.18;;;6.10;;
71655;SDS011;59497;48.798;8.816;2022-10-19T11:16:45;9.98;;;6.03;;
71655;SDS011;59497;48.798;8.816;2022-10-19T11:19:23;9.45;;;5.47;;
71655;SDS011;59497;48.798;8.816;2022-10-19T11:22:13;10.55;;;7.40;;
71655;SDS011;59497;48.798;8.816;2022-10-19T11:27:12;9.25;;;5.85;;
71655;SDS011;59497;48.798;8.816;2022-10-19T11:42:53;9.15;;;6.05;;
71655;SDS011;59497;48.798;8.816;2022-10-19T11:45:23;7.72;;;5.15;;
71655;SDS011;59497;48.798;8.816;2022-10-19T11:48:02;7.63;;;5.30;;
71655;SDS011;59497;48.798;8.816;2022-10-19T12:01:06;7.95;;;5.70;;
71655;SDS011;59497;48.798;8.816;2022-10-19T12:13:27;6.85;;;4.40;;
71655;SDS011;59497;48.798;8.816;2022-10-19T12:15:53;6.80;;;4.30;;
71655;SDS011;59497;48.798;8.816;2022-10-19T12:18:41;7.93;;;4.97;;
71655;SDS011;59497;48.798;8.816;2022-10-19T12:21:09;7.43;;;4.10;;
71655;SDS011;59497;48.798;8.816;2022-10-19T12:23:38;8.30;;;4.40;;
71655;SDS011;59497;48.798;8.816;2022-10-19T12:26:06;5.70;;;4.47;;
71655;SDS011;59497;48.798;8.816;2022-10-19T12:28:36;5.78;;;4.38;;
71655;SDS011;59497;48.798;8.816;2022-10-19T12:31:02;6.30;;;4.15;;
71655;SDS011;59497;48.798;8.816;2022-10-19T12:33:42;5.75;;;4.35;;
71655;SDS011;59497;48.798;8.816;2022-10-19T12:38:46;5.35;;;4.60;;
71655;SDS011;59497;48.798;8.816;2022-10-19T12:41:18;5.65;;;4.47;;
71655;SDS011;59497;48.798;8.816;2022-10-19T12:43:51;5.75;;;4.43;;
71655;SDS011;59497;48.798;8.816;2022-10-19T12:46:27;5.55;;;3.88;;
71655;SDS011;59497;48.798;8.816;2022-10-19T12:51:43;5.20;;;4.22;;
71655;SDS011;59497;48.798;8.816;2022-10-19T12:54:08;5.45;;;4.18;;
71655;SDS011;59497;48.798;8.816;2022-10-19T12:56:34;6.50;;;4.20;;
71655;SDS011;59497;48.798;8.816;2022-10-19T12:59:10;6.03;;;4.00;;
71655;SDS011;59497;48.798;8.816;2022-10-19T13:01:43;5.47;;;4.00;;
71655;SDS011;59497;48.798;8.816;2022-10-19T13:04:10;5.80;;;4.10;;
71655;SDS011;59497;48.798;8.816;2022-10-19T13:06:42;5.43;;;4.10;;
71655;SDS011;59497;48.798;8.816;2022-10-19T13:09:11;6.03;;;3.60;;
71655;SDS011;59497;48.798;8.816;2022-10-19T13:17:36;5.68;;;3.90;;
71655;SDS011;59497;48.798;8.816;2022-10-19T13:27:38;5.47;;;4.37;;
71655;SDS011;59497;48.798;8.816;2022-10-19T13:30:03;6.37;;;4.77;;
71655;SDS011;59497;48.798;8.816;2022-10-19T13:32:49;6.22;;;4.35;;
71655;SDS011;59497;48.798;8.816;2022-10-19T13:35:24;7.03;;;4.03;;
71655;SDS011;59497;48.798;8.816;2022-10-19T13:40:33;6.18;;;4.25;;
71655;SDS011;59497;48.798;8.816;2022-10-19T13:43:00;7.40;;;4.05;;
71655;SDS011;59497;48.798;8.816;2022-10-19T13:45:25;7.10;;;4.70;;
71655;SDS011;59497;48.798;8.816;2022-10-19T13:47:51;7.00;;;4.30;;
71655;SDS011;59497;48.798;8.816;2022-10-19T13:53:02;8.13;;;4.17;;
71655;SDS011;59497;48.798;8.816;2022-10-19T13:55:39;8.95;;;4.25;;
71655;SDS011;59497;48.798;8.816;2022-10-19T13:58:23;6.22;;;4.40;;
71655;SDS011;59497;48.798;8.816;2022-10-19T14:00:56;7.38;;;4.60;;
71655;SDS011;59497;48.798;8.816;2022-10-19T14:05:52;6.60;;;4.17;;
71655;SDS011;59497;48.798;8.816;2022-10-19T14:08:25;6.60;;;4.18;;
71655;SDS011;59497;48.798;8.816;2022-10-19T14:11:29;5.95;;;4.22;;
71655;SDS011;59497;48.798;8.816;2022-10-19T14:13:45;5.97;;;4.45;;
71655;SDS011;59497;48.798;8.816;2022-10-19T14:16:18;8.03;;;5.20;;
71655;SDS011;59497;48.798;8.816;2022-10-19T14:18:50;8.27;;;5.45;;
71655;SDS011;59497;48.798;8.816;2022-10-19T14:21:16;6.33;;;4.30;;
71655;SDS011;59497;48.798;8.816;2022-10-19T14:23:52;6.40;;;4.15;;
71655;SDS011;59497;48.798;8.816;2022-10-19T14:26:19;6.00;;;4.30;;
71655;SDS011;59497;48.798;8.816;2022-10-19T14:28:44;7.43;;;4.35;;
71655;SDS011;59497;48.798;8.816;2022-10-19T14:31:19;5.85;;;4.07;;
71655;SDS011;59497;48.798;8.816;2022-10-19T14:33:46;6.82;;;4.45;;
71655;SDS011;59497;48.798;8.816;2022-10-19T14:36:13;7.67;;;4.50;;
71655;SDS011;59497;48.798;8.816;2022-10-19T14:38:40;5.47;;;4.28;;
71655;SDS011;59497;48.798;8.816;2022-10-19T14:41:16;7.90;;;5.43;;
71655;SDS011;59497;48.798;8.816;2022-10-19T14:43:42;8.90;;;4.93;;
71655;SDS011;59497;48.798;8.816;2022-10-19T14:46:11;7.33;;;5.27;;
71655;SDS011;59497;48.798;8.816;2022-10-19T14:48:41;8.20;;;5.10;;
71655;SDS011;59497;48.798;8.816;2022-10-19T14:51:14;7.70;;;5.40;;
71655;SDS011;59497;48.798;8.816;2022-10-19T14:53:44;7.88;;;5.47;;
71655;SDS011;59497;48.798;8.816;2022-10-19T14:56:13;8.68;;;5.28;;
71655;SDS011;59497;48.798;8.816;2022-10-19T14:58:58;6.78;;;4.25;;
71655;SDS011;59497;48.798;8.816;2022-10-19T15:01:24;6.68;;;4.75;;
71655;SDS011;59497;48.798;8.816;2022-10-19T15:03:50;7.20;;;5.33;;
71655;SDS011;59497;48.798;8.816;2022-10-19T15:06:16;7.00;;;4.80;;
71655;SDS011;59497;48.798;8.816;2022-10-19T15:08:48;6.72;;;4.82;;
71655;SDS011;59497;48.798;8.816;2022-10-19T15:11:22;8.32;;;5.95;;
71655;SDS011;59497;48.798;8.816;2022-10-19T15:13:52;7.95;;;5.47;;
71655;SDS011;59497;48.798;8.816;2022-10-19T15:19:04;10.77;;;6.28;;
71655;SDS011;59497;48.798;8.816;2022-10-19T15:21:29;11.32;;;6.63;;
71655;SDS011;59497;48.798;8.816;2022-10-19T15:23:54;9.27;;;6.13;;
71655;SDS011;59497;48.798;8.816;2022-10-19T15:26:29;8.85;;;5.60;;
71655;SDS011;59497;48.798;8.816;2022-10-19T15:29:05;7.57;;;5.27;;
71655;SDS011;59497;48.798;8.816;2022-10-19T15:31:31;8.05;;;5.57;;
71655;SDS011;59497;48.798;8.816;2022-10-19T15:33:57;7.53;;;5.30;;
71655;SDS011;59497;48.798;8.816;2022-10-19T15:36:23;6.05;;;4.40;;
71655;SDS011;59497;48.798;8.816;2022-10-19T15:38:58;8.53;;;4.97;;
71655;SDS011;59497;48.798;8.816;2022-10-19T15:41:30;12.13;;;5.53;;
71655;SDS011;59497;48.798;8.816;2022-10-19T15:43:57;11.20;;;5.85;;
71655;SDS011;59497;48.798;8.816;2022-10-19T15:46:30;10.43;;;5.40;;
71655;SDS011;59497;48.798;8.816;2022-10-19T15:48:57;10.23;;;4.90;;
71655;SDS011;59497;48.798;8.816;2022-10-19T15:53:49;6.95;;;4.90;;
71655;SDS011;59497;48.798;8.816;2022-10-19T15:56:14;8.07;;;5.25;;
71655;SDS011;59497;48.798;8.816;2022-10-19T15:58:39;6.45;;;4.20;;
71655;SDS011;59497;48.798;8.816;2022-10-19T16:01:08;7.83;;;4.70;;
71655;SDS011;59497;48.798;8.816;2022-10-19T16:03:35;11.15;;;5.45;;
71655;SDS011;59497;48.798;8.816;2022-10-19T16:06:00;9.93;;;6.07;;
71655;SDS011;59497;48.798;8.816;2022-10-19T16:08:26;11.75;;;7.32;;
71655;SDS011;59497;48.798;8.816;2022-10-19T16:10:51;9.50;;;7.00;;
71655;SDS011;59497;48.798;8.816;2022-10-19T16:13:16;8.43;;;6.67;;
71655;SDS011;59497;48.798;8.816;2022-10-19T16:15:42;7.80;;;6.10;;
71655;SDS011;59497;48.798;8.816;2022-10-19T16:18:08;9.10;;;5.60;;
71655;SDS011;59497;48.798;8.816;2022-10-19T16:20:33;10.77;;;7.07;;
71655;SDS011;59497;48.798;8.816;2022-10-19T16:22:58;8.53;;;6.00;;
71655;SDS011;59497;48.798;8.816;2022-10-19T16:25:23;9.30;;;6.40;;